Time;durP1;ratioP1;P1;durP2;ratioP2;P2;SDS_P1;SDS_P2;PMS_P1;PMS_P2;Temp;Humidity;BMP_temperature;BMP_pressure;BME280_temperature;BME280_humidity;BME280_pressure;Samples;Min_cycle;Max_cycle;Signal;HPM_P1;HPM_P2
2022/12/16 00:02:08;;;;;;;227.20;132.32;;;;;;;;;;5072706;28;20078;-74
2022/12/16 00:04:34;;;;;;;560.55;199.25;;;;;;;;;;5069050;28;20020;-74
2022/12/16 00:06:59;;;;;;;237.90;136.15;;;;;;;;;;5070922;28;20343;-77
2022/12/16 00:09:24;;;;;;;207.13;125.07;;;;;;;;;;5064045;28;20020;-74
2022/12/16 00:11:50;;;;;;;233.55;132.63;;;;;;;;;;5067601;28;20093;-74
2022/12/16 00:14:15;;;;;;;232.75;150.32;;;;;;;;;;5065280;28;20478;-75
2022/12/16 00:16:40;;;;;;;544.65;245.23;;;;;;;;;;5052525;28;20143;-77
2022/12/16 00:19:06;;;;;;;287.40;177.60;;;;;;;;;;5066507;28;20488;-76
2022/12/16 00:21:31;;;;;;;256.58;160.60;;;;;;;;;;5054300;28;20029;-77
2022/12/16 00:23:57;;;;;;;268.98;152.50;;;;;;;;;;5072535;28;20020;-75
2022/12/16 00:26:22;;;;;;;646.22;248.43;;;;;;;;;;5073282;28;20036;-75
2022/12/16 00:28:47;;;;;;;253.82;145.55;;;;;;;;;;5071912;28;20033;-75
2022/12/16 00:31:13;;;;;;;246.70;142.43;;;;;;;;;;5067268;28;20044;-74
2022/12/16 00:33:38;;;;;;;277.33;158.48;;;;;;;;;;5065149;28;20020;-75
2022/12/16 00:36:04;;;;;;;220.25;138.00;;;;;;;;;;5073882;28;20081;-75
2022/12/16 00:38:29;;;;;;;375.20;173.95;;;;;;;;;;5068745;28;20029;-76
2022/12/16 00:40:54;;;;;;;443.00;205.95;;;;;;;;;;5052161;28;20020;-77
2022/12/16 00:43:20;;;;;;;242.60;138.18;;;;;;;;;;5053612;28;20351;-76
2022/12/16 00:45:45;;;;;;;210.65;120.63;;;;;;;;;;5068280;28;20035;-75
2022/12/16 00:48:10;;;;;;;227.05;126.05;;;;;;;;;;5059961;28;20029;-76
2022/12/16 00:50:36;;;;;;;228.32;136.13;;;;;;;;;;5076591;28;20028;-76
2022/12/16 00:53:01;;;;;;;438.25;135.60;;;;;;;;;;5070741;28;20035;-75
2022/12/16 00:55:26;;;;;;;202.75;88.88;;;;;;;;;;5069079;28;20040;-75
2022/12/16 00:57:52;;;;;;;262.50;104.70;;;;;;;;;;5077190;28;20032;-75
2022/12/16 01:00:17;;;;;;;170.95;91.88;;;;;;;;;;5041617;28;20064;-74
2022/12/16 01:02:43;;;;;;;206.13;105.80;;;;;;;;;;5058853;28;20017;-76
2022/12/16 01:05:09;;;;;;;180.18;107.25;;;;;;;;;;5075147;28;20032;-76
2022/12/16 01:07:35;;;;;;;169.27;102.85;;;;;;;;;;5074489;28;20082;-76
2022/12/16 01:10:00;;;;;;;243.23;113.65;;;;;;;;;;5064524;28;20052;-77
2022/12/16 01:12:25;;;;;;;128.18;73.50;;;;;;;;;;5075578;28;20043;-76
2022/12/16 01:14:51;;;;;;;143.48;79.18;;;;;;;;;;5064816;28;20119;-76
2022/12/16 01:17:16;;;;;;;164.38;90.55;;;;;;;;;;5039123;28;20032;-75
2022/12/16 01:19:41;;;;;;;268.27;110.72;;;;;;;;;;5066929;28;20099;-76
2022/12/16 01:22:07;;;;;;;221.52;95.75;;;;;;;;;;5065321;28;20443;-75
2022/12/16 01:24:32;;;;;;;126.35;71.53;;;;;;;;;;5063497;28;20084;-76
2022/12/16 01:26:57;;;;;;;364.88;114.80;;;;;;;;;;5077448;28;20331;-75
2022/12/16 01:29:23;;;;;;;131.43;76.60;;;;;;;;;;5076783;28;20039;-74
2022/12/16 01:31:48;;;;;;;234.77;94.72;;;;;;;;;;5075547;28;20016;-75
2022/12/16 01:34:13;;;;;;;153.00;83.05;;;;;;;;;;5061224;28;20030;-76
2022/12/16 01:36:38;;;;;;;154.32;82.45;;;;;;;;;;5074176;28;20043;-75
2022/12/16 01:39:04;;;;;;;182.35;84.35;;;;;;;;;;5073069;28;20020;-75
2022/12/16 01:41:29;;;;;;;138.55;77.03;;;;;;;;;;5060379;28;20031;-75
2022/12/16 01:44:13;;;;;;;174.55;84.75;;;;;;;;;;5068547;28;20060;-75
2022/12/16 01:46:39;;;;;;;364.02;108.72;;;;;;;;;;5072973;28;20024;-77
2022/12/16 01:49:10;;;;;;;126.97;74.85;;;;;;;;;;5061665;28;20021;-76
2022/12/16 01:51:37;;;;;;;259.70;90.82;;;;;;;;;;5060526;28;20033;-76
2022/12/16 01:54:14;;;;;;;147.52;78.80;;;;;;;;;;5072159;28;20107;-75
2022/12/16 01:56:43;;;;;;;157.15;82.47;;;;;;;;;;5071217;28;20032;-76
2022/12/16 01:59:10;;;;;;;132.60;76.03;;;;;;;;;;5075092;28;20028;-78
2022/12/16 02:01:35;;;;;;;118.15;70.65;;;;;;;;;;5075493;28;20074;-74
2022/12/16 02:04:03;;;;;;;126.45;72.43;;;;;;;;;;5073600;28;20025;-76
2022/12/16 02:06:29;;;;;;;218.90;91.20;;;;;;;;;;5057182;28;20042;-74
2022/12/16 02:08:56;;;;;;;171.68;79.30;;;;;;;;;;5069040;28;20111;-77
2022/12/16 02:11:36;;;;;;;242.82;96.75;;;;;;;;;;5064319;28;20489;-76
2022/12/16 02:14:04;;;;;;;251.23;104.78;;;;;;;;;;5069928;28;20067;-77
2022/12/16 02:16:38;;;;;;;245.07;106.03;;;;;;;;;;5066994;28;20024;-74
2022/12/16 02:19:22;;;;;;;250.45;112.75;;;;;;;;;;5065165;28;20020;-74
2022/12/16 02:22:05;;;;;;;210.48;107.72;;;;;;;;;;5064467;28;20024;-76
2022/12/16 02:24:33;;;;;;;210.57;104.20;;;;;;;;;;5077088;28;20115;-75
2022/12/16 02:26:59;;;;;;;336.45;127.57;;;;;;;;;;5078169;28;20059;-75
2022/12/16 02:29:27;;;;;;;278.33;115.88;;;;;;;;;;5076566;28;20485;-75
2022/12/16 02:32:19;;;;;;;145.10;92.05;;;;;;;;;;5077060;28;20016;-74
2022/12/16 02:35:03;;;;;;;282.90;111.57;;;;;;;;;;5062333;28;20042;-78
2022/12/16 02:37:41;;;;;;;376.45;125.32;;;;;;;;;;5077897;28;20031;-75
2022/12/16 02:40:14;;;;;;;459.95;137.02;;;;;;;;;;5077090;28;20110;-75
2022/12/16 02:43:08;;;;;;;178.23;93.97;;;;;;;;;;5078554;28;20035;-76
2022/12/16 02:45:34;;;;;;;163.70;91.10;;;;;;;;;;4996861;28;20047;-78
2022/12/16 02:47:59;;;;;;;159.20;92.88;;;;;;;;;;4992246;28;20045;-75
2022/12/16 02:50:29;;;;;;;263.38;109.50;;;;;;;;;;4992513;28;20532;-78
2022/12/16 02:52:56;;;;;;;179.50;91.15;;;;;;;;;;4992959;28;20026;-75
2022/12/16 02:55:27;;;;;;;177.38;89.97;;;;;;;;;;4974912;28;20153;-75
2022/12/16 02:58:09;;;;;;;345.85;110.32;;;;;;;;;;4996877;28;20789;-75
2022/12/16 03:00:50;;;;;;;303.42;103.93;;;;;;;;;;4997896;28;20067;-76
2022/12/16 03:03:19;;;;;;;298.08;107.90;;;;;;;;;;4997743;28;20042;-74
2022/12/16 03:05:48;;;;;;;170.10;96.43;;;;;;;;;;4996810;28;20041;-75
2022/12/16 03:08:17;;;;;;;393.02;133.30;;;;;;;;;;4997929;28;20041;-75
2022/12/16 03:10:44;;;;;;;260.42;100.95;;;;;;;;;;4997490;28;20095;-74
2022/12/16 03:13:10;;;;;;;154.18;89.53;;;;;;;;;;4998048;28;20066;-77
2022/12/16 03:15:37;;;;;;;204.77;91.82;;;;;;;;;;4988189;28;20209;-75
2022/12/16 03:18:04;;;;;;;183.82;89.53;;;;;;;;;;4994008;28;20056;-74
2022/12/16 03:20:41;;;;;;;638.15;168.30;;;;;;;;;;4990309;28;20037;-76
2022/12/16 03:23:09;;;;;;;212.57;96.80;;;;;;;;;;5074914;28;20565;-77
2022/12/16 03:25:37;;;;;;;306.05;99.97;;;;;;;;;;5078257;28;20059;-76
2022/12/16 03:28:07;;;;;;;254.43;115.35;;;;;;;;;;5078683;28;20062;-76
2022/12/16 03:30:32;;;;;;;;;;;;;;;;;;5077775;28;20030;-76
2022/12/16 03:33:16;;;;;;;171.53;82.20;;;;;;;;;;5065414;28;19912;-74
2022/12/16 03:35:43;;;;;;;125.95;76.75;;;;;;;;;;5074546;28;20743;-78
2022/12/16 03:38:09;;;;;;;252.02;93.82;;;;;;;;;;5065692;28;20036;-76
2022/12/16 03:40:36;;;;;;;145.55;78.88;;;;;;;;;;5076132;28;20028;-75
2022/12/16 03:43:02;;;;;;;210.35;94.10;;;;;;;;;;5075864;28;20024;-78
2022/12/16 03:45:31;;;;;;;160.60;84.38;;;;;;;;;;5074779;28;20051;-76
2022/12/16 03:47:58;;;;;;;149.90;82.82;;;;;;;;;;5060603;28;20017;-79
2022/12/16 03:50:28;;;;;;;274.27;105.68;;;;;;;;;;5078135;28;20033;-75
2022/12/16 03:52:54;;;;;;;182.27;108.03;;;;;;;;;;5078549;28;20507;-75
2022/12/16 03:55:19;;;;;;;259.65;112.22;;;;;;;;;;5079213;28;20036;-75
2022/12/16 03:57:44;;;;;;;335.83;133.70;;;;;;;;;;5079043;28;20585;-75
2022/12/16 04:00:10;;;;;;;261.90;121.20;;;;;;;;;;5064460;28;20044;-75
2022/12/16 04:02:35;;;;;;;174.93;97.95;;;;;;;;;;5078617;28;20998;-75
2022/12/16 04:05:00;;;;;;;215.15;101.43;;;;;;;;;;5079462;28;20027;-75
2022/12/16 04:07:26;;;;;;;303.23;117.43;;;;;;;;;;5080640;28;20386;-76
2022/12/16 04:09:51;;;;;;;388.05;132.35;;;;;;;;;;5082317;28;20126;-77
2022/12/16 04:26:00;;;;;;;169.60;95.53;;;;;;;;;;5080198;28;20107;-75
2022/12/16 04:28:25;;;;;;;388.67;129.77;;;;;;;;;;5081944;28;20425;-76
2022/12/16 04:30:50;;;;;;;153.32;93.32;;;;;;;;;;5079149;28;20034;-75
